Time,TemperatureF,DewpointF,PressureIn,WindDirection,WindDirectionDegrees,WindSpeedMPH,WindSpeedGustMPH,Humidity,HourlyPrecipIn,Conditions,Clouds,dailyrainin,SoftwareType,DateUTC
2013-03-03 00:00:00,20.5,12.9,30.35,SW,218,2.0,6.0,72,0.00,,BKN001,0.00,VWS V14.00,2013-03-03 07:00:00,
2013-03-03 00:05:00,20.4,12.8,30.35,SE,145,4.0,4.0,72,0.00,,BKN001,0.00,VWS V14.00,2013-03-03 07:05:00,
2013-03-03 00:10:00,19.8,12.6,30.34,SW,215,5.0,6.0,73,0.00,,BKN001,0.00,VWS V14.00,2013-03-03 07:10:00,
2013-03-03 00:15:00,20.2,13.2,30.34,South,184,5.0,7.0,74,0.00,,BKN001,0.00,VWS V14.00,2013-03-03 07:15:00,
2013-03-03 00:20:00,20.1,13.2,30.33,SW,235,4.0,7.0,74,0.00,,BKN001,0.00,VWS V14.00,2013-03-03 07:20:00,
2013-03-03 00:25:00,19.8,13.2,30.34,SW,230,6.0,7.0,75,0.00,,BKN001,0.00,VWS V14.00,2013-03-03 07:25:00,
2013-03-03 00:30:00,19.9,13.3,30.34,WSW,249,2.0,7.0,75,0.00,,BKN001,0.00,VWS V14.00,2013-03-03 07:30:00,
2013-03-03 00:35:00,20.0,13.1,30.34,West,259,0.0,6.0,74,0.00,,BKN001,0.00,VWS V14.00,2013-03-03 07:35:00,
2013-03-03 00:40:00,19.5,12.3,30.33,West,280,0.0,6.0,73,0.00,,BKN001,0.00,VWS V14.00,2013-03-03 07:40:00,
2013-03-03 00:45:00,19.3,12.7,30.34,NW,309,0.0,6.0,75,0.00,,BKN001,0.00,VWS V14.00,2013-03-03 07:45:00,
2013-03-03 00:50:00,19.2,12.6,30.33,NW,309,0.0,6.0,75,0.00,,BKN001,0.00,VWS V14.00,2013-03-03 07:50:00,
2013-03-03 00:55:00,19.0,12.7,30.33,SW,225,1.0,6.0,76,0.00,,BKN001,0.00,VWS V14.00,2013-03-03 07:55:00,
2013-03-03 01:00:00,18.7,12.4,30.32,South,179,2.0,6.0,76,0.00,,BKN001,0.00,VWS V14.00,2013-03-03 08:00:00,
2013-03-03 01:05:00,18.2,12.2,30.32,SW,236,2.0,2.0,77,0.00,,BKN001,0.00,VWS V14.00,2013-03-03 08:05:00,
2013-03-03 01:10:00,18.3,12.6,30.33,West,264,1.0,3.0,78,0.00,,BKN001,0.00,VWS V14.00,2013-03-03 08:10:00,
2013-03-03 01:15:00,18.3,12.0,30.32,ESE,108,1.0,3.0,76,0.00,,BKN001,0.00,VWS V14.00,2013-03-03 08:15:00,
2013-03-03 01:20:00,18.1,12.1,30.32,WNW,297,1.0,3.0,77,0.00,,BKN001,0.00,VWS V14.00,2013-03-03 08:20:00,
2013-03-03 01:25:00,18.3,12.6,30.32,SW,226,1.0,5.0,78,0.00,,BKN001,0.00,VWS V14.00,2013-03-03 08:25:00,
2013-03-03 01:30:00,18.8,12.8,30.32,SW,226,0.0,5.0,77,0.00,,BKN001,0.00,VWS V14.00,2013-03-03 08:30:00,
2013-03-03 01:35:00,19.0,12.4,30.32,SW,218,2.0,4.0,75,0.00,,BKN001,0.00,VWS V14.00,2013-03-03 08:35:00,
2013-03-03 01:40:00,18.5,11.9,30.32,East,83,0.0,4.0,75,0.00,,BKN001,0.00,VWS V14.00,2013-03-03 08:40:00,
2013-03-03 01:45:00,17.9,11.3,30.32,East,79,0.0,4.0,75,0.00,,BKN001,0.00,VWS V14.00,2013-03-03 08:45:00,
2013-03-03 01:50:00,17.5,11.5,30.32,WSW,256,1.0,4.0,77,0.00,,BKN001,0.00,VWS V14.00,2013-03-03 08:50:00,
2013-03-03 01:55:00,17.7,11.4,30.31,SSE,165,1.0,4.0,76,0.00,,BKN001,0.00,VWS V14.00,2013-03-03 08:55:00,
2013-03-03 02:00:00,17.4,11.1,30.31,West,259,2.0,4.0,76,0.00,,BKN001,0.00,VWS V14.00,2013-03-03 09:00:00,
2013-03-03 02:05:00,17.3,10.4,30.31,West,277,0.0,2.0,74,0.00,,BKN001,0.00,VWS V14.00,2013-03-03 09:05:00,
2013-03-03 02:10:00,16.7,10.5,30.31,ENE,76,0.0,2.0,76,0.00,,BKN001,0.00,VWS V14.00,2013-03-03 09:10:00,
2013-03-03 02:15:00,16.0,10.1,30.31,South,177,0.0,2.0,77,0.00,,BKN001,0.00,VWS V14.00,2013-03-03 09:15:00,
2013-03-03 02:20:00,16.3,10.7,30.30,South,176,3.0,4.0,78,0.00,,BKN001,0.00,VWS V14.00,2013-03-03 09:20:00,
2013-03-03 02:25:00,15.7,9.8,30.29,SSW,212,3.0,4.0,77,0.00,,BKN001,0.00,VWS V14.00,2013-03-03 09:25:00,
2013-03-03 02:30:00,15.3,10.2,30.29,SW,225,3.0,5.0,80,0.00,,BKN001,0.00,VWS V14.00,2013-03-03 09:30:00,
2013-03-03 02:35:00,15.0,10.2,30.28,WSW,239,3.0,4.0,81,0.00,,BKN001,0.00,VWS V14.00,2013-03-03 09:35:00,
2013-03-03 02:40:00,14.7,9.7,30.28,WNW,287,1.0,6.0,80,0.00,,BKN001,0.00,VWS V14.00,2013-03-03 09:40:00,
2013-03-03 02:45:00,14.3,9.6,30.27,West,270,2.0,6.0,81,0.00,,BKN001,0.00,VWS V14.00,2013-03-03 09:45:00,
2013-03-03 02:50:00,14.3,9.8,30.27,WSW,251,0.0,6.0,82,0.00,,BKN001,0.00,VWS V14.00,2013-03-03 09:50:00,
2013-03-03 02:55:00,14.3,9.8,30.27,WSW,253,0.0,6.0,82,0.00,,BKN001,0.00,VWS V14.00,2013-03-03 09:55:00,
2013-03-03 03:00:00,13.8,9.1,30.27,WSW,251,0.0,6.0,81,0.00,,BKN001,0.00,VWS V14.00,2013-03-03 10:00:00,
2013-03-03 03:05:00,13.3,8.6,30.27,West,270,0.0,0.0,81,0.00,,BKN001,0.00,VWS V14.00,2013-03-03 10:05:00,
2013-03-03 03:10:00,12.8,8.1,30.27,NE,50,0.0,0.0,81,0.00,,BKN001,0.00,VWS V14.00,2013-03-03 10:10:00,
2013-03-03 03:15:00,12.3,7.9,30.27,NE,36,1.0,1.0,82,0.00,,BKN001,0.00,VWS V14.00,2013-03-03 10:15:00,
2013-03-03 03:20:00,12.6,9.0,30.26,North,1,0.0,2.0,85,0.00,,BKN001,0.00,VWS V14.00,2013-03-03 10:20:00,
2013-03-03 03:25:00,12.6,8.4,30.26,NNE,24,1.0,2.0,83,0.00,,BKN001,0.00,VWS V14.00,2013-03-03 10:25:00,
2013-03-03 03:30:00,12.5,8.6,30.27,NNE,29,0.0,2.0,84,0.00,,BKN001,0.00,VWS V14.00,2013-03-03 10:30:00,
2013-03-03 03:35:00,12.2,8.0,30.26,NNE,29,0.0,0.0,83,0.00,,BKN001,0.00,VWS V14.00,2013-03-03 10:35:00,
2013-03-03 03:40:00,12.2,8.3,30.27,WNW,293,1.0,3.0,84,0.00,,BKN001,0.00,VWS V14.00,2013-03-03 10:40:00,
2013-03-03 03:45:00,12.7,9.1,30.26,SW,224,5.0,7.0,85,0.00,,BKN001,0.00,VWS V14.00,2013-03-03 10:45:00,
2013-03-03 03:50:00,12.7,8.5,30.26,West,259,1.0,7.0,83,0.00,,BKN001,0.00,VWS V14.00,2013-03-03 10:50:00,
2013-03-03 03:55:00,12.7,8.5,30.26,SSW,194,3.0,7.0,83,0.00,,BKN001,0.00,VWS V14.00,2013-03-03 10:55:00,
2013-03-03 04:00:00,12.5,8.1,30.26,SE,143,0.0,7.0,82,0.00,,BKN001,0.00,VWS V14.00,2013-03-03 11:00:00,
2013-03-03 04:05:00,11.9,7.5,30.26,SSE,153,2.0,2.0,82,0.00,,BKN001,0.00,VWS V14.00,2013-03-03 11:05:00,
2013-03-03 04:10:00,12.2,8.3,30.27,WSW,240,1.0,3.0,84,0.00,,BKN001,0.00,VWS V14.00,2013-03-03 11:10:00,
2013-03-03 04:15:00,12.5,8.6,30.26,WSW,248,1.0,3.0,84,0.00,,BKN001,0.00,VWS V14.00,2013-03-03 11:15:00,
2013-03-03 04:20:00,12.4,8.0,30.26,WSW,238,1.0,3.0,82,0.00,,BKN001,0.00,VWS V14.00,2013-03-03 11:20:00,
2013-03-03 04:25:00,12.1,7.4,30.26,SE,136,3.0,4.0,81,0.00,,BKN001,0.00,VWS V14.00,2013-03-03 11:25:00,
2013-03-03 04:30:00,11.7,7.0,30.25,SW,229,4.0,5.0,81,0.00,,BKN001,0.00,VWS V14.00,2013-03-03 11:30:00,
2013-03-03 04:35:00,12.2,8.0,30.25,SSE,158,4.0,4.0,83,0.00,,BKN001,0.00,VWS V14.00,2013-03-03 11:35:00,
2013-03-03 04:40:00,12.6,7.9,30.25,SE,136,3.0,7.0,81,0.00,,BKN001,0.00,VWS V14.00,2013-03-03 11:40:00,
2013-03-03 04:45:00,12.4,7.4,30.25,ESE,115,2.0,7.0,80,0.00,,BKN001,0.00,VWS V14.00,2013-03-03 11:45:00,
2013-03-03 04:50:00,12.4,7.7,30.26,SSE,158,2.0,7.0,81,0.00,,BKN001,0.00,VWS V14.00,2013-03-03 11:50:00,
2013-03-03 04:55:00,12.4,8.0,30.25,WNW,287,1.0,7.0,82,0.00,,BKN001,0.00,VWS V14.00,2013-03-03 11:55:00,
2013-03-03 05:00:00,12.6,7.6,30.26,SSW,212,2.0,7.0,80,0.00,,BKN001,0.00,VWS V14.00,2013-03-03 12:00:00,
2013-03-03 05:05:00,12.1,7.1,30.25,SE,126,2.0,3.0,80,0.00,,BKN001,0.00,VWS V14.00,2013-03-03 12:05:00,
2013-03-03 05:10:00,11.1,5.9,30.25,SSE,163,3.0,3.0,79,0.00,,BKN001,0.00,VWS V14.00,2013-03-03 12:10:00,
2013-03-03 05:15:00,11.3,7.2,30.25,South,172,2.0,3.0,83,0.00,,BKN001,0.00,VWS V14.00,2013-03-03 12:15:00,
2013-03-03 05:20:00,11.6,7.4,30.25,SSW,200,0.0,3.0,83,0.00,,BKN001,0.00,VWS V14.00,2013-03-03 12:20:00,
2013-03-03 05:25:00,11.3,6.6,30.25,SW,224,1.0,3.0,81,0.00,,BKN001,0.00,VWS V14.00,2013-03-03 12:25:00,
2013-03-03 05:30:00,11.1,6.7,30.24,SE,139,3.0,5.0,82,0.00,,BKN001,0.00,VWS V14.00,2013-03-03 12:30:00,
2013-03-03 05:35:00,10.1,5.4,30.25,SSE,163,2.0,2.0,81,0.00,,BKN001,0.00,VWS V14.00,2013-03-03 12:35:00,
2013-03-03 05:40:00,9.8,5.4,30.24,SW,225,0.0,2.0,82,0.00,,BKN001,0.00,VWS V14.00,2013-03-03 12:40:00,
2013-03-03 05:45:00,9.3,4.9,30.24,WSW,248,4.0,4.0,82,0.00,,BKN001,0.00,VWS V14.00,2013-03-03 12:45:00,
2013-03-03 05:50:00,8.9,4.8,30.24,WSW,240,2.0,4.0,83,0.00,,BKN001,0.00,VWS V14.00,2013-03-03 12:50:00,
2013-03-03 05:55:00,9.4,6.3,30.24,SSW,201,3.0,4.0,87,0.00,,BKN001,0.00,VWS V14.00,2013-03-03 12:55:00,
2013-03-03 06:00:00,9.4,5.8,30.24,West,278,2.0,4.0,85,0.00,,BKN001,0.00,VWS V14.00,2013-03-03 13:00:00,
2013-03-03 06:05:00,8.9,5.1,30.24,West,271,3.0,3.0,84,0.00,,BKN001,0.00,VWS V14.00,2013-03-03 13:05:00,
2013-03-03 06:10:00,9.1,5.5,30.23,SSW,212,3.0,3.0,85,0.00,,BKN001,0.00,VWS V14.00,2013-03-03 13:10:00,
2013-03-03 06:15:00,9.8,6.5,30.24,WSW,250,0.0,4.0,86,0.00,,BKN001,0.00,VWS V14.00,2013-03-03 13:15:00,
2013-03-03 06:20:00,9.9,6.3,30.24,WNW,297,1.0,4.0,85,0.00,,BKN001,0.00,VWS V14.00,2013-03-03 13:20:00,
2013-03-03 06:25:00,9.8,5.9,30.23,NW,316,3.0,4.0,84,0.00,,BKN001,0.00,VWS V14.00,2013-03-03 13:25:00,
2013-03-03 06:30:00,10.0,6.4,30.23,SW,231,1.0,4.0,85,0.00,,BKN001,0.00,VWS V14.00,2013-03-03 13:30:00,
2013-03-03 06:35:00,9.9,6.0,30.23,ESE,117,0.0,3.0,84,0.00,,BKN001,0.00,VWS V14.00,2013-03-03 13:35:00,
2013-03-03 06:40:00,9.8,6.2,30.23,SW,235,4.0,5.0,85,0.00,,BKN001,0.00,VWS V14.00,2013-03-03 13:40:00,
2013-03-03 06:45:00,10.1,6.5,30.22,SW,229,2.0,5.0,85,0.00,,BKN001,0.00,VWS V14.00,2013-03-03 13:45:00,
2013-03-03 06:50:00,10.5,6.6,30.22,SW,225,1.0,5.0,84,0.00,,BKN001,0.00,VWS V14.00,2013-03-03 13:50:00,
2013-03-03 06:55:00,10.5,6.1,30.23,West,263,1.0,5.0,82,0.00,,BKN001,0.00,VWS V14.00,2013-03-03 13:55:00,
2013-03-03 07:00:00,10.6,6.5,30.22,SSW,200,1.0,5.0,83,0.00,,BKN001,0.00,VWS V14.00,2013-03-03 14:00:00,
2013-03-03 07:05:00,10.5,6.1,30.22,West,267,1.0,4.0,82,0.00,,BKN001,0.00,VWS V14.00,2013-03-03 14:05:00,
2013-03-03 07:10:00,11.1,7.2,30.23,SW,225,3.0,6.0,84,0.00,,BKN001,0.00,VWS V14.00,2013-03-03 14:10:00,
2013-03-03 07:15:00,11.9,7.2,30.22,SW,225,4.0,8.0,81,0.00,,BKN001,0.00,VWS V14.00,2013-03-03 14:15:00,
2013-03-03 07:20:00,12.2,7.8,30.22,West,280,4.0,8.0,82,0.00,,BKN001,0.00,VWS V14.00,2013-03-03 14:20:00,
2013-03-03 07:25:00,12.9,8.2,30.21,SSW,205,3.0,8.0,81,0.00,,BKN001,0.00,VWS V14.00,2013-03-03 14:25:00,
2013-03-03 07:30:00,13.6,8.3,30.21,South,172,1.0,8.0,79,0.00,,BKN001,0.00,VWS V14.00,2013-03-03 14:30:00,
2013-03-03 07:35:00,14.0,9.0,30.20,SW,232,4.0,9.0,80,0.00,,BKN001,0.00,VWS V14.00,2013-03-03 14:35:00,
2013-03-03 07:40:00,14.4,9.1,30.20,SSW,210,5.0,9.0,79,0.00,,BKN001,0.00,VWS V14.00,2013-03-03 14:40:00,
2013-03-03 07:45:00,14.2,8.6,30.19,ENE,64,6.0,9.0,78,0.00,,BKN001,0.00,VWS V14.00,2013-03-03 14:45:00,
2013-03-03 07:50:00,14.4,8.8,30.20,East,98,5.0,9.0,78,0.00,,BKN001,0.00,VWS V14.00,2013-03-03 14:50:00,
2013-03-03 07:55:00,15.4,9.5,30.20,East,90,0.0,9.0,77,0.00,,BKN001,0.00,VWS V14.00,2013-03-03 14:55:00,
2013-03-03 08:00:00,15.6,9.1,30.20,NNW,330,3.0,9.0,75,0.00,,BKN001,0.00,VWS V14.00,2013-03-03 15:00:00,
2013-03-03 08:05:00,15.8,8.7,30.19,ENE,67,1.0,3.0,73,0.00,,BKN001,0.00,VWS V14.00,2013-03-03 15:05:00,
2013-03-03 08:10:00,16.0,8.9,30.19,NNW,334,0.0,3.0,73,0.00,,BKN001,0.00,VWS V14.00,2013-03-03 15:10:00,
2013-03-03 08:15:00,17.5,10.0,30.19,NNW,335,0.0,3.0,72,0.00,,BKN001,0.00,VWS V14.00,2013-03-03 15:15:00,
2013-03-03 08:20:00,18.2,9.4,30.18,East,98,0.0,3.0,68,0.00,,BKN001,0.00,VWS V14.00,2013-03-03 15:20:00,
2013-03-03 08:25:00,17.8,9.4,30.17,SSW,209,4.0,4.0,69,0.00,,BKN001,0.00,VWS V14.00,2013-03-03 15:25:00,
2013-03-03 08:30:00,17.4,9.6,30.18,SW,228,0.0,4.0,71,0.00,,BKN001,0.00,VWS V14.00,2013-03-03 15:30:00,
2013-03-03 08:35:00,18.6,10.5,30.17,WNW,302,3.0,3.0,70,0.00,,BKN001,0.00,VWS V14.00,2013-03-03 15:35:00,
2013-03-03 08:40:00,18.8,10.6,30.18,WNW,302,0.0,3.0,70,0.00,,BKN001,0.00,VWS V14.00,2013-03-03 15:40:00,
2013-03-03 08:45:00,20.2,10.3,30.17,ENE,68,0.0,3.0,65,0.00,,BKN001,0.00,VWS V14.00,2013-03-03 15:45:00,
2013-03-03 08:50:00,20.0,10.8,30.16,ENE,67,0.0,3.0,67,0.00,,BKN001,0.00,VWS V14.00,2013-03-03 15:50:00,
2013-03-03 08:55:00,21.3,11.4,30.16,ENE,67,1.0,3.0,65,0.00,,BKN001,0.00,VWS V14.00,2013-03-03 15:55:00,
2013-03-03 09:00:00,21.8,11.2,30.16,SSW,207,1.0,3.0,63,0.00,,BKN001,0.00,VWS V14.00,2013-03-03 16:00:00,
2013-03-03 09:05:00,22.7,11.6,30.16,SE,139,0.0,1.0,62,0.00,,BKN001,0.00,VWS V14.00,2013-03-03 16:05:00,
2013-03-03 09:10:00,23.6,12.5,30.15,SE,136,0.0,1.0,62,0.00,,BKN001,0.00,VWS V14.00,2013-03-03 16:10:00,
2013-03-03 09:15:00,24.6,11.9,30.15,WNW,302,1.0,2.0,58,0.00,,BKN001,0.00,VWS V14.00,2013-03-03 16:15:00,
2013-03-03 09:20:00,25.2,12.9,30.15,NW,304,0.0,2.0,59,0.00,,BKN001,0.00,VWS V14.00,2013-03-03 16:20:00,
2013-03-03 09:25:00,25.0,12.7,30.15,West,271,1.0,2.0,59,0.00,,BKN001,0.00,VWS V14.00,2013-03-03 16:25:00,
2013-03-03 09:30:00,25.0,13.1,30.14,SW,219,0.0,2.0,60,0.00,,BKN001,0.00,VWS V14.00,2013-03-03 16:30:00,
2013-03-03 09:35:00,28.1,14.4,30.13,SSE,162,1.0,2.0,56,0.00,,BKN001,0.00,VWS V14.00,2013-03-03 16:35:00,
2013-03-03 09:40:00,29.1,13.7,30.12,WSW,240,2.0,2.0,52,0.00,,BKN001,0.00,VWS V14.00,2013-03-03 16:40:00,
2013-03-03 09:45:00,29.4,14.0,30.12,WNW,302,2.0,2.0,52,0.00,,BKN001,0.00,VWS V14.00,2013-03-03 16:45:00,
2013-03-03 09:50:00,27.4,13.8,30.11,NNW,333,5.0,6.0,56,0.00,,BKN001,0.00,VWS V14.00,2013-03-03 16:50:00,
2013-03-03 09:55:00,27.7,14.5,30.11,NE,53,5.0,7.0,57,0.00,,BKN001,0.00,VWS V14.00,2013-03-03 16:55:00,
2013-03-03 10:00:00,26.1,14.1,30.11,NE,37,1.0,7.0,60,0.00,,BKN001,0.00,VWS V14.00,2013-03-03 17:00:00,
2013-03-03 10:05:00,26.6,14.6,30.11,NE,35,0.0,5.0,60,0.00,,BKN001,0.00,VWS V14.00,2013-03-03 17:05:00,
2013-03-03 10:10:00,27.6,15.9,30.10,NE,42,0.0,8.0,61,0.00,,BKN001,0.00,VWS V14.00,2013-03-03 17:10:00,
2013-03-03 10:15:00,27.8,15.4,30.09,ENE,69,4.0,14.0,59,0.00,,BKN001,0.00,VWS V14.00,2013-03-03 17:15:00,
2013-03-03 10:20:00,30.2,16.0,30.08,SE,132,5.0,14.0,55,0.00,,BKN001,0.00,VWS V14.00,2013-03-03 17:20:00,
2013-03-03 10:25:00,33.3,16.7,30.08,SSW,193,2.0,14.0,50,0.00,,BKN001,0.00,VWS V14.00,2013-03-03 17:25:00,
2013-03-03 10:30:00,38.7,17.6,30.06,SSE,152,8.0,16.0,42,0.00,,BKN001,0.00,VWS V14.00,2013-03-03 17:30:00,
2013-03-03 10:35:00,42.9,13.6,30.05,SSE,166,8.0,20.0,30,0.00,,BKN001,0.00,VWS V14.00,2013-03-03 17:35:00,
2013-03-03 10:40:00,45.1,13.1,30.05,South,169,7.0,24.0,27,0.00,,BKN001,0.00,VWS V14.00,2013-03-03 17:40:00,
2013-03-03 10:45:00,46.3,15.0,30.05,SSW,201,10.0,24.0,28,0.00,,BKN001,0.00,VWS V14.00,2013-03-03 17:45:00,
2013-03-03 10:50:00,46.0,15.5,30.04,SSE,151,10.0,24.0,29,0.00,,BKN001,0.00,VWS V14.00,2013-03-03 17:50:00,
2013-03-03 10:55:00,45.2,19.9,30.04,SSE,163,10.0,24.0,36,0.00,,BKN001,0.00,VWS V14.00,2013-03-03 17:55:00,
2013-03-03 11:00:00,44.1,19.5,30.03,SE,146,18.0,24.0,37,0.00,,BKN001,0.00,VWS V14.00,2013-03-03 18:00:00,
2013-03-03 11:05:00,44.5,20.5,30.04,SE,139,14.0,18.0,38,0.00,,BKN001,0.00,VWS V14.00,2013-03-03 18:05:00,
2013-03-03 11:10:00,44.9,15.4,30.03,SE,125,16.0,28.0,30,0.00,,BKN001,0.00,VWS V14.00,2013-03-03 18:10:00,
2013-03-03 11:15:00,45.4,10.7,30.03,SSE,162,19.0,30.0,24,0.00,,BKN001,0.00,VWS V14.00,2013-03-03 18:15:00,
2013-03-03 11:20:00,46.3,9.6,30.02,SW,219,26.0,31.0,22,0.00,,BKN001,0.00,VWS V14.00,2013-03-03 18:20:00,
2013-03-03 11:25:00,46.5,9.7,30.03,South,169,11.0,34.0,22,0.00,,BKN001,0.00,VWS V14.00,2013-03-03 18:25:00,
2013-03-03 11:30:00,46.5,10.7,30.02,SE,136,21.0,47.0,23,0.00,,BKN001,0.00,VWS V14.00,2013-03-03 18:30:00,
2013-03-03 11:35:00,46.6,12.7,30.02,South,170,28.0,39.0,25,0.00,,BKN001,0.00,VWS V14.00,2013-03-03 18:35:00,
2013-03-03 11:40:00,46.3,11.5,30.03,WNW,297,12.0,44.0,24,0.00,,BKN001,0.00,VWS V14.00,2013-03-03 18:40:00,
2013-03-03 11:45:00,46.4,12.5,30.02,South,186,16.0,44.0,25,0.00,,BKN001,0.00,VWS V14.00,2013-03-03 18:45:00,
2013-03-03 11:50:00,46.1,13.1,30.01,South,184,10.0,49.0,26,0.00,,BKN001,0.00,VWS V14.00,2013-03-03 18:50:00,
2013-03-03 11:55:00,46.2,13.2,30.03,WSW,239,14.0,49.0,26,0.00,,BKN001,0.00,VWS V14.00,2013-03-03 18:55:00,
2013-03-03 12:00:00,46.3,13.3,30.02,SSW,200,20.0,49.0,26,0.00,,BKN001,0.00,VWS V14.00,2013-03-03 19:00:00,
2013-03-03 12:05:00,46.4,12.5,30.01,SSE,166,20.0,32.0,25,0.00,,BKN001,0.00,VWS V14.00,2013-03-03 19:05:00,
2013-03-03 12:10:00,46.5,13.5,30.01,SE,136,4.0,32.0,26,0.00,,BKN001,0.00,VWS V14.00,2013-03-03 19:10:00,
2013-03-03 12:15:00,46.1,13.1,30.00,SSW,200,18.0,32.0,26,0.00,,BKN001,0.00,VWS V14.00,2013-03-03 19:15:00,
2013-03-03 12:20:00,46.2,13.2,29.99,NW,316,14.0,32.0,26,0.00,,BKN001,0.00,VWS V14.00,2013-03-03 19:20:00,
2013-03-03 12:25:00,46.3,14.2,29.98,SE,146,14.0,32.0,27,0.00,,BKN001,0.00,VWS V14.00,2013-03-03 19:25:00,
2013-03-03 12:30:00,46.0,15.5,29.98,SE,136,17.0,32.0,29,0.00,,BKN001,0.00,VWS V14.00,2013-03-03 19:30:00,
2013-03-03 12:35:00,45.8,12.9,29.98,SW,232,14.0,27.0,26,0.00,,BKN001,0.00,VWS V14.00,2013-03-03 19:35:00,
2013-03-03 12:40:00,45.8,11.1,29.97,SSE,166,5.0,27.0,24,0.00,,BKN001,0.00,VWS V14.00,2013-03-03 19:40:00,
2013-03-03 12:45:00,45.8,12.9,29.97,SW,224,19.0,27.0,26,0.00,,BKN001,0.00,VWS V14.00,2013-03-03 19:45:00,
2013-03-03 12:50:00,45.6,11.8,29.97,South,172,17.0,27.0,25,0.00,,BKN001,0.00,VWS V14.00,2013-03-03 19:50:00,
2013-03-03 12:55:00,45.5,14.3,29.96,South,169,17.0,27.0,28,0.00,,BKN001,0.00,VWS V14.00,2013-03-03 19:55:00,
2013-03-03 13:00:00,45.8,12.9,29.95,SSW,193,18.0,27.0,26,0.00,,BKN001,0.00,VWS V14.00,2013-03-03 20:00:00,
2013-03-03 13:05:00,45.4,14.2,29.95,SSW,197,11.0,27.0,28,0.00,,BKN001,0.00,VWS V14.00,2013-03-03 20:05:00,
2013-03-03 13:10:00,45.2,13.2,29.96,SSE,153,6.0,31.0,27,0.00,,BKN001,0.00,VWS V14.00,2013-03-03 20:10:00,
2013-03-03 13:15:00,44.9,12.1,29.95,SW,225,16.0,32.0,26,0.00,,BKN001,0.00,VWS V14.00,2013-03-03 20:15:00,
2013-03-03 13:20:00,45.0,13.1,29.94,South,188,20.0,32.0,27,0.00,,BKN001,0.00,VWS V14.00,2013-03-03 20:20:00,
2013-03-03 13:25:00,44.9,12.1,29.94,SSW,197,11.0,32.0,26,0.00,,BKN001,0.00,VWS V14.00,2013-03-03 20:25:00,
2013-03-03 13:30:00,44.7,14.4,29.94,SSW,201,14.0,32.0,29,0.00,,BKN001,0.00,VWS V14.00,2013-03-03 20:30:00,
2013-03-03 13:35:00,44.4,13.4,29.94,SW,214,11.0,27.0,28,0.00,,BKN001,0.00,VWS V14.00,2013-03-03 20:35:00,
2013-03-03 13:40:00,44.5,13.4,29.95,NW,304,14.0,27.0,28,0.00,,BKN001,0.00,VWS V14.00,2013-03-03 20:40:00,
2013-03-03 13:45:00,44.4,13.4,29.94,WSW,254,11.0,40.0,28,0.00,,BKN001,0.00,VWS V14.00,2013-03-03 20:45:00,
2013-03-03 13:50:00,44.2,14.0,29.94,SW,235,6.0,40.0,29,0.00,,BKN001,0.00,VWS V14.00,2013-03-03 20:50:00,
2013-03-03 13:55:00,44.4,13.4,29.93,SSW,198,24.0,40.0,28,0.00,,BKN001,0.00,VWS V14.00,2013-03-03 20:55:00,
2013-03-03 14:00:00,44.5,14.2,29.93,SSW,207,14.0,40.0,29,0.00,,BKN001,0.00,VWS V14.00,2013-03-03 21:00:00,
2013-03-03 14:05:00,44.5,14.2,29.92,SE,129,7.0,10.0,29,0.00,,BKN001,0.00,VWS V14.00,2013-03-03 21:05:00,
2013-03-03 14:10:00,44.9,14.6,29.91,South,187,11.0,14.0,29,0.00,,BKN001,0.00,VWS V14.00,2013-03-03 21:10:00,
2013-03-03 14:15:00,44.8,15.3,29.91,SSW,207,9.0,15.0,30,0.00,,BKN001,0.00,VWS V14.00,2013-03-03 21:15:00,
2013-03-03 14:20:00,44.4,14.9,29.91,WNW,283,5.0,15.0,30,0.00,,BKN001,0.00,VWS V14.00,2013-03-03 21:20:00,
2013-03-03 14:25:00,44.0,15.3,29.91,SSE,167,3.0,19.0,31,0.00,,BKN001,0.00,VWS V14.00,2013-03-03 21:25:00,
2013-03-03 14:30:00,44.0,18.1,29.91,SSW,207,5.0,19.0,35,0.00,,BKN001,0.00,VWS V14.00,2013-03-03 21:30:00,
2013-03-03 14:35:00,43.5,16.3,29.91,South,191,12.0,24.0,33,0.00,,BKN001,0.00,VWS V14.00,2013-03-03 21:35:00,
2013-03-03 14:40:00,42.7,20.7,29.92,South,186,19.0,24.0,41,0.00,,BKN001,0.00,VWS V14.00,2013-03-03 21:40:00,
2013-03-03 14:45:00,42.1,20.7,29.92,South,190,9.0,24.0,42,0.00,,BKN001,0.00,VWS V14.00,2013-03-03 21:45:00,
2013-03-03 14:50:00,41.2,22.5,29.92,SSW,193,10.0,24.0,47,0.00,,BKN001,0.00,VWS V14.00,2013-03-03 21:50:00,
2013-03-03 14:55:00,40.6,23.0,29.91,South,191,11.0,24.0,49,0.00,,BKN001,0.00,VWS V14.00,2013-03-03 21:55:00,
2013-03-03 15:00:00,40.4,22.8,29.91,SSE,168,11.0,24.0,49,0.00,,BKN001,0.00,VWS V14.00,2013-03-03 22:00:00,
2013-03-03 15:05:00,40.2,23.5,29.92,South,190,9.0,14.0,51,0.00,,BKN001,0.00,VWS V14.00,2013-03-03 22:05:00,
2013-03-03 15:10:00,40.0,23.4,29.92,South,191,10.0,14.0,51,0.00,,BKN001,0.00,VWS V14.00,2013-03-03 22:10:00,
2013-03-03 15:15:00,40.0,23.8,29.92,South,180,13.0,14.0,52,0.00,,BKN001,0.00,VWS V14.00,2013-03-03 22:15:00,
2013-03-03 15:20:00,40.1,23.4,29.92,SSW,198,10.0,14.0,51,0.00,,BKN001,0.00,VWS V14.00,2013-03-03 22:20:00,
2013-03-03 15:25:00,40.0,23.8,29.92,SSE,166,11.0,14.0,52,0.00,,BKN001,0.00,VWS V14.00,2013-03-03 22:25:00,
2013-03-03 15:30:00,40.0,23.4,29.92,South,188,9.0,15.0,51,0.00,,BKN001,0.00,VWS V14.00,2013-03-03 22:30:00,
2013-03-03 15:35:00,39.9,23.7,29.92,South,172,9.0,15.0,52,0.00,,BKN001,0.00,VWS V14.00,2013-03-03 22:35:00,
2013-03-03 15:40:00,39.7,22.6,29.93,South,191,9.0,15.0,50,0.00,,BKN001,0.00,VWS V14.00,2013-03-03 22:40:00,
2013-03-03 15:45:00,40.0,22.9,29.92,South,173,13.0,15.0,50,0.00,,BKN001,0.00,VWS V14.00,2013-03-03 22:45:00,
2013-03-03 15:50:00,39.7,24.0,29.92,South,172,9.0,15.0,53,0.00,,BKN001,0.00,VWS V14.00,2013-03-03 22:50:00,
2013-03-03 15:55:00,39.5,23.4,29.92,South,169,10.0,15.0,52,0.00,,BKN001,0.00,VWS V14.00,2013-03-03 22:55:00,
2013-03-03 16:00:00,39.6,23.9,29.92,SSE,167,9.0,15.0,53,0.00,,BKN001,0.00,VWS V14.00,2013-03-03 23:00:00,
2013-03-03 16:05:00,39.7,22.1,29.92,South,169,9.0,17.0,49,0.00,,BKN001,0.00,VWS V14.00,2013-03-03 23:05:00,
2013-03-03 16:10:00,39.9,22.3,29.91,South,187,9.0,17.0,49,0.00,,BKN001,0.00,VWS V14.00,2013-03-03 23:10:00,
2013-03-03 16:15:00,40.0,21.9,29.91,South,188,11.0,17.0,48,0.00,,BKN001,0.00,VWS V14.00,2013-03-03 23:15:00,
2013-03-03 16:20:00,41.0,24.3,29.91,South,184,12.0,17.0,51,0.00,,BKN001,0.00,VWS V14.00,2013-03-03 23:20:00,
2013-03-03 16:25:00,41.8,24.1,29.91,South,183,6.0,17.0,49,0.00,,BKN001,0.00,VWS V14.00,2013-03-03 23:25:00,
2013-03-03 16:30:00,42.0,21.7,29.90,South,183,14.0,18.0,44,0.00,,BKN001,0.00,VWS V14.00,2013-03-03 23:30:00,
2013-03-03 16:35:00,41.9,22.6,29.91,SSW,198,13.0,16.0,46,0.00,,BKN001,0.00,VWS V14.00,2013-03-03 23:35:00,
2013-03-03 16:40:00,41.8,23.1,29.91,SSW,204,8.0,16.0,47,0.00,,BKN001,0.00,VWS V14.00,2013-03-03 23:40:00,
2013-03-03 16:45:00,41.6,23.9,29.91,SSW,209,11.0,16.0,49,0.00,,BKN001,0.00,VWS V14.00,2013-03-03 23:45:00,
2013-03-03 16:50:00,41.0,23.8,29.91,South,177,10.0,18.0,50,0.00,,BKN001,0.00,VWS V14.00,2013-03-03 23:50:00,
2013-03-03 16:55:00,40.1,23.0,29.91,South,188,10.0,18.0,50,0.00,,BKN001,0.00,VWS V14.00,2013-03-03 23:55:00,
2013-03-03 17:00:00,39.4,23.7,29.91,South,176,10.0,18.0,53,0.00,,BKN001,0.00,VWS V14.00,2013-03-04 00:00:00,
2013-03-03 17:05:00,38.8,23.1,29.91,SSE,166,8.0,15.0,53,0.00,,BKN001,0.00,VWS V14.00,2013-03-04 00:05:00,
2013-03-03 17:10:00,38.5,22.4,29.92,South,181,12.0,15.0,52,0.00,,BKN001,0.00,VWS V14.00,2013-03-04 00:10:00,
2013-03-03 17:15:00,38.2,23.0,29.92,South,181,10.0,15.0,54,0.00,,BKN001,0.00,VWS V14.00,2013-03-04 00:15:00,
2013-03-03 17:20:00,38.0,22.9,29.92,South,169,14.0,15.0,54,0.00,,BKN001,0.00,VWS V14.00,2013-03-04 00:20:00,
2013-03-03 17:25:00,37.9,23.2,29.93,SSW,198,11.0,15.0,55,0.00,,BKN001,0.00,VWS V14.00,2013-03-04 00:25:00,
2013-03-03 17:30:00,37.7,23.0,29.93,SSW,192,9.0,15.0,55,0.00,,BKN001,0.00,VWS V14.00,2013-03-04 00:30:00,
2013-03-03 17:35:00,37.6,22.9,29.93,South,169,9.0,16.0,55,0.00,,BKN001,0.00,VWS V14.00,2013-03-04 00:35:00,
2013-03-03 17:40:00,37.7,22.1,29.94,South,188,9.0,17.0,53,0.00,,BKN001,0.00,VWS V14.00,2013-03-04 00:40:00,
2013-03-03 17:45:00,37.5,23.2,29.94,South,181,19.0,19.0,56,0.00,,BKN001,0.00,VWS V14.00,2013-03-04 00:45:00,
2013-03-03 17:50:00,37.4,22.7,29.94,South,172,15.0,19.0,55,0.00,,BKN001,0.00,VWS V14.00,2013-03-04 00:50:00,
2013-03-03 17:55:00,37.1,23.7,29.94,SSE,155,9.0,19.0,58,0.00,,BKN001,0.00,VWS V14.00,2013-03-04 00:55:00,
2013-03-03 18:00:00,36.7,23.7,29.94,SSW,197,13.0,19.0,59,0.00,,BKN001,0.00,VWS V14.00,2013-03-04 01:00:00,
2013-03-03 18:05:00,36.4,23.5,29.95,SSE,164,10.0,14.0,59,0.00,,BKN001,0.00,VWS V14.00,2013-03-04 01:05:00,
2013-03-03 18:10:00,36.5,22.7,29.95,South,176,9.0,14.0,57,0.00,,BKN001,0.00,VWS V14.00,2013-03-04 01:10:00,
2013-03-03 18:15:00,36.4,23.5,29.95,South,174,10.0,14.0,59,0.00,,BKN001,0.00,VWS V14.00,2013-03-04 01:15:00,
2013-03-03 18:20:00,36.5,22.7,29.95,SSW,207,6.0,14.0,57,0.00,,BKN001,0.00,VWS V14.00,2013-03-04 01:20:00,
2013-03-03 18:25:00,36.1,24.0,29.96,SSW,201,5.0,14.0,61,0.00,,BKN001,0.00,VWS V14.00,2013-03-04 01:25:00,
2013-03-03 18:30:00,35.6,23.9,29.96,SSW,192,6.0,14.0,62,0.00,,BKN001,0.00,VWS V14.00,2013-03-04 01:30:00,
2013-03-03 18:35:00,35.6,23.9,29.96,South,191,9.0,12.0,62,0.00,,BKN001,0.00,VWS V14.00,2013-03-04 01:35:00,
2013-03-03 18:40:00,35.3,24.0,29.96,South,172,8.0,14.0,63,0.00,,BKN001,0.00,VWS V14.00,2013-03-04 01:40:00,
2013-03-03 18:45:00,35.0,24.1,29.96,South,186,8.0,14.0,64,0.00,,BKN001,0.00,VWS V14.00,2013-03-04 01:45:00,
2013-03-03 18:50:00,34.9,24.0,29.96,South,174,9.0,14.0,64,0.00,,BKN001,0.00,VWS V14.00,2013-03-04 01:50:00,
2013-03-03 18:55:00,34.9,24.3,29.96,SSE,153,11.0,14.0,65,0.00,,BKN001,0.00,VWS V14.00,2013-03-04 01:55:00,
2013-03-03 19:00:00,35.0,23.7,29.96,South,177,9.0,14.0,63,0.00,,BKN001,0.00,VWS V14.00,2013-03-04 02:00:00,
2013-03-03 19:05:00,35.3,23.6,29.96,SE,136,10.0,15.0,62,0.00,,BKN001,0.00,VWS V14.00,2013-03-04 02:05:00,
2013-03-03 19:10:00,35.3,23.6,29.96,SSE,152,9.0,15.0,62,0.00,,BKN001,0.00,VWS V14.00,2013-03-04 02:10:00,
2013-03-03 19:15:00,35.3,23.2,29.96,SSE,148,10.0,15.0,61,0.00,,BKN001,0.00,VWS V14.00,2013-03-04 02:15:00,
2013-03-03 19:20:00,35.5,23.8,29.96,SSE,153,10.0,15.0,62,0.00,,BKN001,0.00,VWS V14.00,2013-03-04 02:20:00,
2013-03-03 19:25:00,35.2,23.9,29.96,SSE,161,9.0,15.0,63,0.00,,BKN001,0.00,VWS V14.00,2013-03-04 02:25:00,
2013-03-03 19:30:00,35.1,23.8,29.97,SSE,153,9.0,15.0,63,0.00,,BKN001,0.00,VWS V14.00,2013-03-04 02:30:00,
2013-03-03 19:35:00,35.1,23.8,29.96,SE,146,8.0,14.0,63,0.00,,BKN001,0.00,VWS V14.00,2013-03-04 02:35:00,
2013-03-03 19:40:00,35.0,24.1,29.96,SSE,167,8.0,14.0,64,0.00,,BKN001,0.00,VWS V14.00,2013-03-04 02:40:00,
2013-03-03 19:45:00,34.9,24.0,29.97,SSE,165,9.0,14.0,64,0.00,,BKN001,0.00,VWS V14.00,2013-03-04 02:45:00,
2013-03-03 19:50:00,34.9,24.3,29.96,SE,146,11.0,14.0,65,0.00,,BKN001,0.00,VWS V14.00,2013-03-04 02:50:00,
2013-03-03 19:55:00,34.7,24.1,29.96,SE,142,11.0,14.0,65,0.00,,BKN001,0.00,VWS V14.00,2013-03-04 02:55:00,
2013-03-03 20:00:00,34.7,24.5,29.97,SSE,168,12.0,15.0,66,0.00,,BKN001,0.00,VWS V14.00,2013-03-04 03:00:00,
2013-03-03 20:05:00,34.5,25.0,29.97,South,169,11.0,13.0,68,0.00,,BKN001,0.00,VWS V14.00,2013-03-04 03:05:00,
2013-03-03 20:10:00,34.7,24.9,29.97,SSE,167,7.0,13.0,67,0.00,,BKN001,0.00,VWS V14.00,2013-03-04 03:10:00,
2013-03-03 20:15:00,34.5,25.0,29.96,SSE,152,5.0,13.0,68,0.00,,BKN001,0.00,VWS V14.00,2013-03-04 03:15:00,
2013-03-03 20:20:00,34.3,25.2,29.96,SE,138,5.0,13.0,69,0.00,,BKN001,0.00,VWS V14.00,2013-03-04 03:20:00,
2013-03-03 20:25:00,34.1,25.4,29.96,SSE,158,6.0,13.0,70,0.00,,BKN001,0.00,VWS V14.00,2013-03-04 03:25:00,
2013-03-03 20:30:00,34.1,25.4,29.96,SSE,160,5.0,13.0,70,0.00,,BKN001,0.00,VWS V14.00,2013-03-04 03:30:00,
2013-03-03 20:35:00,34.1,25.4,29.96,SSE,163,6.0,7.0,70,0.00,,BKN001,0.00,VWS V14.00,2013-03-04 03:35:00,
2013-03-03 20:40:00,34.1,25.4,29.95,South,188,5.0,8.0,70,0.00,,BKN001,0.00,VWS V14.00,2013-03-04 03:40:00,
2013-03-03 20:45:00,33.8,26.1,29.96,South,191,3.0,8.0,73,0.00,,BKN001,0.00,VWS V14.00,2013-03-04 03:45:00,
2013-03-03 20:50:00,33.6,25.9,29.96,SSW,212,2.0,8.0,73,0.00,,BKN001,0.00,VWS V14.00,2013-03-04 03:50:00,
2013-03-03 20:55:00,33.7,25.6,29.95,South,170,3.0,8.0,72,0.00,,BKN001,0.00,VWS V14.00,2013-03-04 03:55:00,
2013-03-03 21:00:00,33.9,26.2,29.96,SW,231,3.0,8.0,73,0.00,,BKN001,0.00,VWS V14.00,2013-03-04 04:00:00,
2013-03-03 21:05:00,33.6,26.2,29.95,SW,228,2.0,3.0,74,0.00,,BKN001,0.00,VWS V14.00,2013-03-04 04:05:00,
2013-03-03 21:10:00,33.3,26.2,29.95,South,170,5.0,5.0,75,0.00,,BKN001,0.00,VWS V14.00,2013-03-04 04:10:00,
2013-03-03 21:15:00,33.2,26.1,29.95,SW,224,1.0,6.0,75,0.00,,BKN001,0.00,VWS V14.00,2013-03-04 04:15:00,
2013-03-03 21:20:00,33.2,26.1,29.95,SW,221,3.0,6.0,75,0.00,,BKN001,0.00,VWS V14.00,2013-03-04 04:20:00,
2013-03-03 21:25:00,33.4,26.0,29.95,SW,220,6.0,8.0,74,0.00,,BKN001,0.00,VWS V14.00,2013-03-04 04:25:00,
2013-03-03 21:30:00,33.4,26.0,29.95,SSW,193,7.0,8.0,74,0.00,,BKN001,0.00,VWS V14.00,2013-03-04 04:30:00,
2013-03-03 21:35:00,33.4,25.7,29.94,SSW,197,8.0,9.0,73,0.00,,BKN001,0.00,VWS V14.00,2013-03-04 04:35:00,
2013-03-03 21:40:00,33.4,25.7,29.94,SSW,211,5.0,11.0,73,0.00,,BKN001,0.00,VWS V14.00,2013-03-04 04:40:00,
2013-03-03 21:45:00,33.4,25.7,29.94,SSW,210,10.0,12.0,73,0.00,,BKN001,0.00,VWS V14.00,2013-03-04 04:45:00,
2013-03-03 21:50:00,33.2,26.1,29.95,South,183,7.0,12.0,75,0.00,,BKN001,0.00,VWS V14.00,2013-03-04 04:50:00,
2013-03-03 21:55:00,33.1,26.0,29.95,SSW,195,7.0,12.0,75,0.00,,BKN001,0.00,VWS V14.00,2013-03-04 04:55:00,
2013-03-03 22:00:00,33.1,26.4,29.94,SSE,166,5.0,12.0,76,0.00,,BKN001,0.00,VWS V14.00,2013-03-04 05:00:00,
2013-03-03 22:05:00,33.1,26.0,29.93,SSE,162,6.0,8.0,75,0.00,,BKN001,0.00,VWS V14.00,2013-03-04 05:05:00,
2013-03-03 22:10:00,33.2,26.5,29.94,SSE,157,8.0,8.0,76,0.00,,BKN001,0.00,VWS V14.00,2013-03-04 05:10:00,
2013-03-03 22:15:00,33.1,26.7,29.94,SSE,160,7.0,12.0,77,0.00,,BKN001,0.00,VWS V14.00,2013-03-04 05:15:00,
2013-03-03 22:20:00,33.2,27.1,29.93,SSE,165,7.0,12.0,78,0.00,,BKN001,0.00,VWS V14.00,2013-03-04 05:20:00,
2013-03-03 22:25:00,33.1,27.0,29.93,South,174,6.0,12.0,78,0.00,,BKN001,0.00,VWS V14.00,2013-03-04 05:25:00,
2013-03-03 22:30:00,33.0,26.9,29.93,SSW,194,6.0,12.0,78,0.00,,BKN001,0.00,VWS V14.00,2013-03-04 05:30:00,
2013-03-03 22:35:00,32.8,26.7,29.93,SSW,201,5.0,5.0,78,0.00,,BKN001,0.00,VWS V14.00,2013-03-04 05:35:00,
2013-03-03 22:40:00,32.9,26.8,29.93,SE,140,6.0,10.0,78,0.00,,BKN001,0.00,VWS V14.00,2013-03-04 05:40:00,
2013-03-03 22:45:00,33.0,26.9,29.92,SE,130,5.0,10.0,78,0.00,,BKN001,0.00,VWS V14.00,2013-03-04 05:45:00,
2013-03-03 22:50:00,33.1,27.0,29.92,South,189,4.0,10.0,78,0.00,,BKN001,0.00,VWS V14.00,2013-03-04 05:50:00,
2013-03-03 22:55:00,32.9,26.8,29.93,SW,221,4.0,10.0,78,0.00,,BKN001,0.00,VWS V14.00,2013-03-04 05:55:00,
2013-03-03 23:00:00,32.9,26.8,29.92,SSW,207,2.0,10.0,78,0.00,,BKN001,0.00,VWS V14.00,2013-03-04 06:00:00,
2013-03-03 23:05:00,32.9,26.5,29.93,South,169,5.0,6.0,77,0.00,,BKN001,0.00,VWS V14.00,2013-03-04 06:05:00,
2013-03-03 23:10:00,33.1,26.4,29.92,South,174,5.0,8.0,76,0.00,,BKN001,0.00,VWS V14.00,2013-03-04 06:10:00,
2013-03-03 23:15:00,33.3,26.6,29.92,SSW,212,4.0,8.0,76,0.00,,BKN001,0.00,VWS V14.00,2013-03-04 06:15:00,
2013-03-03 23:20:00,33.2,26.5,29.92,SSW,203,7.0,11.0,76,0.00,,BKN001,0.00,VWS V14.00,2013-03-04 06:20:00,
2013-03-03 23:25:00,32.7,26.3,29.92,South,180,9.0,11.0,77,0.00,,BKN001,0.00,VWS V14.00,2013-03-04 06:25:00,
2013-03-03 23:30:00,32.8,26.4,29.91,South,175,10.0,12.0,77,0.00,,BKN001,0.00,VWS V14.00,2013-03-04 06:30:00,
2013-03-03 23:35:00,32.8,26.4,29.91,South,176,6.0,11.0,77,0.00,,BKN001,0.00,VWS V14.00,2013-03-04 06:35:00,
2013-03-03 23:40:00,32.8,26.4,29.91,SSE,149,10.0,11.0,77,0.00,,BKN001,0.00,VWS V14.00,2013-03-04 06:40:00,
2013-03-03 23:45:00,32.8,26.4,29.91,SSE,167,9.0,12.0,77,0.00,,BKN001,0.00,VWS V14.00,2013-03-04 06:45:00,
2013-03-03 23:50:00,32.7,26.0,29.91,SSE,158,9.0,12.0,76,0.00,,BKN001,0.00,VWS V14.00,2013-03-04 06:50:00,
2013-03-03 23:55:00,32.7,26.0,29.91,SSW,203,5.0,12.0,76,0.00,,BKN001,0.00,VWS V14.00,2013-03-04 06:55:00,